New Orleans, Louisiana
Traffic Map
Current Weather Conditions
New Orleans, Louisiana
Clear
Clear
27°
Feels Like: 29°
Wind Chill: 27° Ceiling: Unl
Heat Index: 29° Visibility: 10mi
Dew Point: 22° Wind: 8mph
Humidity: 74% Direction: 90° (E)
Pressure: 30.04in Gusts: 0mph
Raw Report DataKNEW 250453Z AUTO 09007KT 10SM CLR 27/22 A3004 RMK AO2 SLP164 T02670217
Traffic Incident Summary
Active as of:
Severity:
Category:
InformationThere was an issue retrieving the traffic information for this location. Please try a different location or try again shortly.
Advertisements